sensor_id;sensor_type;location;lat;lon;timestamp;pressure;altitude;pressure_sealevel;temperature;humidity
42727;BME280;28372;56.832;60.658;2022-12-10T00:01:37;99132.44;;;-4.57;42.80
42727;BME280;28372;56.832;60.658;2022-12-10T00:04:05;99171.91;;;-4.51;42.99
42727;BME280;28372;56.832;60.658;2022-12-10T00:06:35;99171.91;;;-4.51;42.38
42727;BME280;28372;56.832;60.658;2022-12-10T00:09:04;99180.63;;;-4.50;42.91
42727;BME280;28372;56.832;60.658;2022-12-10T00:11:32;99167.19;;;-4.49;42.72
42727;BME280;28372;56.832;60.658;2022-12-10T00:14:00;99145.19;;;-4.54;43.02
42727;BME280;28372;56.832;60.658;2022-12-10T00:16:29;99137.41;;;-4.61;43.22
42727;BME280;28372;56.832;60.658;2022-12-10T00:18:58;99136.03;;;-4.63;46.09
42727;BME280;28372;56.832;60.658;2022-12-10T00:21:28;99148.94;;;-4.50;47.63
42727;BME280;28372;56.832;60.658;2022-12-10T00:23:57;99157.91;;;-4.51;48.36
42727;BME280;28372;56.832;60.658;2022-12-10T00:26:30;99143.81;;;-4.57;46.24
42727;BME280;28372;56.832;60.658;2022-12-10T00:29:00;99163.34;;;-4.41;45.82
42727;BME280;28372;56.832;60.658;2022-12-10T00:31:30;99146.75;;;-4.53;44.01
42727;BME280;28372;56.832;60.658;2022-12-10T00:34:01;99143.81;;;-4.57;43.64
42727;BME280;28372;56.832;60.658;2022-12-10T00:36:34;99161.19;;;-4.44;50.26
42727;BME280;28372;56.832;60.658;2022-12-10T00:39:03;99130.13;;;-4.71;55.46
42727;BME280;28372;56.832;60.658;2022-12-10T00:41:31;99167.88;;;-4.53;56.05
42727;BME280;28372;56.832;60.658;2022-12-10T00:44:00;99160.53;;;-4.51;53.34
42727;BME280;28372;56.832;60.658;2022-12-10T00:46:28;99147.81;;;-4.54;54.23
42727;BME280;28372;56.832;60.658;2022-12-10T00:48:57;99169.13;;;-4.44;52.75
42727;BME280;28372;56.832;60.658;2022-12-10T00:51:26;99149.09;;;-4.57;53.64
42727;BME280;28372;56.832;60.658;2022-12-10T00:53:56;99168.38;;;-4.39;53.79
42727;BME280;28372;56.832;60.658;2022-12-10T00:56:28;99143.25;;;-4.59;54.18
42727;BME280;28372;56.832;60.658;2022-12-10T00:58:56;99138.19;;;-4.60;53.87
42727;BME280;28372;56.832;60.658;2022-12-10T01:01:35;99176.66;;;-4.36;55.82
42727;BME280;28372;56.832;60.658;2022-12-10T01:04:07;99170.00;;;-4.38;55.30
42727;BME280;28372;56.832;60.658;2022-12-10T01:09:12;99177.72;;;-4.66;53.40
42727;BME280;28372;56.832;60.658;2022-12-10T01:11:41;99164.94;;;-4.57;57.47
42727;BME280;28372;56.832;60.658;2022-12-10T01:14:13;99175.56;;;-4.52;58.80
42727;BME280;28372;56.832;60.658;2022-12-10T01:16:41;99169.97;;;-4.55;58.13
42727;BME280;28372;56.832;60.658;2022-12-10T01:19:09;99163.97;;;-4.51;59.61
42727;BME280;28372;56.832;60.658;2022-12-10T01:21:37;99175.03;;;-4.37;60.00
42727;BME280;28372;56.832;60.658;2022-12-10T01:24:06;99147.72;;;-4.59;56.38
42727;BME280;28372;56.832;60.658;2022-12-10T01:26:35;99153.75;;;-4.47;57.54
42727;BME280;28372;56.832;60.658;2022-12-10T01:29:04;99167.34;;;-4.38;56.90
42727;BME280;28372;56.832;60.658;2022-12-10T01:31:36;99176.94;;;-4.32;54.23
42727;BME280;28372;56.832;60.658;2022-12-10T01:34:07;99180.91;;;-4.35;52.93
42727;BME280;28372;56.832;60.658;2022-12-10T01:36:38;99182.09;;;-4.25;54.35
42727;BME280;28372;56.832;60.658;2022-12-10T01:39:08;99180.47;;;-4.43;54.89
42727;BME280;28372;56.832;60.658;2022-12-10T01:41:45;99160.41;;;-4.44;60.36
42727;BME280;28372;56.832;60.658;2022-12-10T01:46:47;99161.91;;;-4.49;58.11
42727;BME280;28372;56.832;60.658;2022-12-10T01:49:18;99168.16;;;-4.38;58.69
42727;BME280;28372;56.832;60.658;2022-12-10T01:51:49;99167.50;;;-4.45;60.19
42727;BME280;28372;56.832;60.658;2022-12-10T01:54:34;99136.38;;;-4.60;60.10
42727;BME280;28372;56.832;60.658;2022-12-10T01:57:15;99145.19;;;-4.37;59.41
42727;BME280;28372;56.832;60.658;2022-12-10T01:59:46;99170.41;;;-4.30;56.89
42727;BME280;28372;56.832;60.658;2022-12-10T02:02:17;99141.34;;;-4.47;55.58
42727;BME280;28372;56.832;60.658;2022-12-10T02:13:27;99152.47;;;-4.10;54.82
42727;BME280;28372;56.832;60.658;2022-12-10T02:16:08;99159.38;;;-4.09;53.83
42727;BME280;28372;56.832;60.658;2022-12-10T02:18:51;99148.47;;;-4.13;53.28
42727;BME280;28372;56.832;60.658;2022-12-10T02:21:34;99139.66;;;-4.02;51.57
42727;BME280;28372;56.832;60.658;2022-12-10T02:24:08;99147.56;;;-4.02;55.22
42727;BME280;28372;56.832;60.658;2022-12-10T02:26:58;99151.59;;;-3.99;53.83
42727;BME280;28372;56.832;60.658;2022-12-10T02:29:30;99162.47;;;-3.96;53.07
42727;BME280;28372;56.832;60.658;2022-12-10T02:32:19;99167.28;;;-3.92;54.09
42727;BME280;28372;56.832;60.658;2022-12-10T02:34:52;99167.81;;;-3.90;56.24
42727;BME280;28372;56.832;60.658;2022-12-10T02:37:59;99156.50;;;-3.86;60.73
42727;BME280;28372;56.832;60.658;2022-12-10T02:40:33;99155.34;;;-3.95;60.98
42727;BME280;28372;56.832;60.658;2022-12-10T02:43:06;99161.50;;;-3.89;61.89
42727;BME280;28372;56.832;60.658;2022-12-10T02:45:35;99148.22;;;-3.94;62.69
42727;BME280;28372;56.832;60.658;2022-12-10T02:48:06;99108.75;;;-4.18;62.37
42727;BME280;28372;56.832;60.658;2022-12-10T02:50:40;99153.56;;;-3.89;61.48
42727;BME280;28372;56.832;60.658;2022-12-10T02:53:08;99145.81;;;-3.96;63.62
42727;BME280;28372;56.832;60.658;2022-12-10T02:59:01;99168.91;;;-3.69;65.70
42727;BME280;28372;56.832;60.658;2022-12-10T03:01:44;99159.56;;;-3.77;66.47
42727;BME280;28372;56.832;60.658;2022-12-10T03:07:23;99152.28;;;-3.87;67.61
42727;BME280;28372;56.832;60.658;2022-12-10T03:10:00;99153.09;;;-3.86;68.78
42727;BME280;28372;56.832;60.658;2022-12-10T03:12:46;99161.16;;;-3.76;69.54
42727;BME280;28372;56.832;60.658;2022-12-10T03:15:19;99163.25;;;-3.78;70.10
42727;BME280;28372;56.832;60.658;2022-12-10T03:17:48;99140.53;;;-3.96;69.14
42727;BME280;28372;56.832;60.658;2022-12-10T03:20:17;99155.97;;;-3.88;69.07
42727;BME280;28372;56.832;60.658;2022-12-10T03:22:46;99168.44;;;-3.83;69.44
42727;BME280;28372;56.832;60.658;2022-12-10T03:25:22;99154.13;;;-3.87;70.51
42727;BME280;28372;56.832;60.658;2022-12-10T03:27:54;99153.94;;;-3.81;68.88
42727;BME280;28372;56.832;60.658;2022-12-10T03:30:23;99166.38;;;-3.81;68.43
42727;BME280;28372;56.832;60.658;2022-12-10T03:32:52;99147.16;;;-3.93;67.68
42727;BME280;28372;56.832;60.658;2022-12-10T03:35:43;99134.13;;;-4.00;65.97
42727;BME280;28372;56.832;60.658;2022-12-10T03:38:25;99143.75;;;-3.94;64.45
42727;BME280;28372;56.832;60.658;2022-12-10T03:40:58;99138.84;;;-4.02;61.95
42727;BME280;28372;56.832;60.658;2022-12-10T03:43:26;99142.00;;;-4.05;59.00
42727;BME280;28372;56.832;60.658;2022-12-10T03:45:53;99163.44;;;-4.02;56.89
42727;BME280;28372;56.832;60.658;2022-12-10T03:48:21;99162.22;;;-4.11;55.96
42727;BME280;28372;56.832;60.658;2022-12-10T03:50:48;99178.16;;;-4.06;54.98
42727;BME280;28372;56.832;60.658;2022-12-10T03:53:16;99175.44;;;-4.11;53.53
42727;BME280;28372;56.832;60.658;2022-12-10T03:55:44;99176.75;;;-4.14;52.82
42727;BME280;28372;56.832;60.658;2022-12-10T03:58:11;99178.81;;;-4.16;52.79
42727;BME280;28372;56.832;60.658;2022-12-10T04:00:46;99188.00;;;-4.18;51.36
42727;BME280;28372;56.832;60.658;2022-12-10T04:03:13;99187.84;;;-4.11;50.77
42727;BME280;28372;56.832;60.658;2022-12-10T04:05:41;99172.97;;;-4.18;50.04
42727;BME280;28372;56.832;60.658;2022-12-10T04:08:08;99181.44;;;-4.16;49.74
42727;BME280;28372;56.832;60.658;2022-12-10T04:10:39;99180.41;;;-4.15;48.77
42727;BME280;28372;56.832;60.658;2022-12-10T04:13:16;99192.41;;;-4.07;49.13
42727;BME280;28372;56.832;60.658;2022-12-10T04:16:04;99170.00;;;-4.21;48.17
42727;BME280;28372;56.832;60.658;2022-12-10T04:18:51;99184.44;;;-4.12;48.42
42727;BME280;28372;56.832;60.658;2022-12-10T04:21:28;99165.53;;;-4.21;48.21
42727;BME280;28372;56.832;60.658;2022-12-10T04:24:15;99195.16;;;-4.02;47.60
42727;BME280;28372;56.832;60.658;2022-12-10T04:27:05;99184.00;;;-3.87;46.74
42727;BME280;28372;56.832;60.658;2022-12-10T04:29:33;99181.13;;;-3.85;45.50
42727;BME280;28372;56.832;60.658;2022-12-10T04:32:00;99180.78;;;-3.89;45.38
42727;BME280;28372;56.832;60.658;2022-12-10T04:34:28;99169.44;;;-3.89;45.10
42727;BME280;28372;56.832;60.658;2022-12-10T04:36:57;99162.13;;;-3.82;44.62
42727;BME280;28372;56.832;60.658;2022-12-10T04:39:25;99151.22;;;-3.86;44.96
42727;BME280;28372;56.832;60.658;2022-12-10T04:41:53;99149.94;;;-3.83;44.01
42727;BME280;28372;56.832;60.658;2022-12-10T04:44:21;99167.41;;;-3.82;43.65
42727;BME280;28372;56.832;60.658;2022-12-10T04:46:48;99168.44;;;-3.83;43.70
42727;BME280;28372;56.832;60.658;2022-12-10T04:49:16;99160.94;;;-3.91;43.71
42727;BME280;28372;56.832;60.658;2022-12-10T04:51:44;99169.66;;;-3.74;43.36
42727;BME280;28372;56.832;60.658;2022-12-10T04:54:12;99169.41;;;-3.72;43.13
42727;BME280;28372;56.832;60.658;2022-12-10T04:56:40;99177.66;;;-3.69;42.69
42727;BME280;28372;56.832;60.658;2022-12-10T04:59:09;99160.47;;;-3.66;42.66
42727;BME280;28372;56.832;60.658;2022-12-10T05:01:37;99172.13;;;-3.67;42.25
42727;BME280;28372;56.832;60.658;2022-12-10T05:04:07;99181.19;;;-3.63;41.77
42727;BME280;28372;56.832;60.658;2022-12-10T05:06:35;99169.81;;;-3.81;41.56
42727;BME280;28372;56.832;60.658;2022-12-10T05:09:05;99176.84;;;-3.69;41.70
42727;BME280;28372;56.832;60.658;2022-12-10T05:11:33;99182.94;;;-3.69;41.53
42727;BME280;28372;56.832;60.658;2022-12-10T05:14:01;99173.09;;;-3.73;41.57
42727;BME280;28372;56.832;60.658;2022-12-10T05:16:30;99144.38;;;-3.87;41.33
42727;BME280;28372;56.832;60.658;2022-12-10T05:18:59;99157.31;;;-3.68;41.01
42727;BME280;28372;56.832;60.658;2022-12-10T05:21:29;99164.00;;;-3.61;41.01
42727;BME280;28372;56.832;60.658;2022-12-10T05:24:17;99130.69;;;-3.62;41.17
42727;BME280;28372;56.832;60.658;2022-12-10T05:26:45;99147.66;;;-3.57;40.06
42727;BME280;28372;56.832;60.658;2022-12-10T05:29:13;99128.59;;;-3.59;40.13
42727;BME280;28372;56.832;60.658;2022-12-10T05:31:41;99121.75;;;-3.55;39.67
42727;BME280;28372;56.832;60.658;2022-12-10T05:34:10;99128.47;;;-3.48;39.86
42727;BME280;28372;56.832;60.658;2022-12-10T05:36:38;99121.00;;;-3.51;39.75
42727;BME280;28372;56.832;60.658;2022-12-10T05:39:06;99124.47;;;-3.50;39.69
42727;BME280;28372;56.832;60.658;2022-12-10T05:41:36;99144.41;;;-3.42;39.49
42727;BME280;28372;56.832;60.658;2022-12-10T05:44:05;99140.09;;;-3.49;39.17
42727;BME280;28372;56.832;60.658;2022-12-10T05:46:33;99155.78;;;-3.42;39.31
42727;BME280;28372;56.832;60.658;2022-12-10T05:49:04;99132.03;;;-3.37;39.29
42727;BME280;28372;56.832;60.658;2022-12-10T05:51:34;99115.06;;;-3.41;38.40
42727;BME280;28372;56.832;60.658;2022-12-10T05:54:02;99120.16;;;-3.34;38.74
42727;BME280;28372;56.832;60.658;2022-12-10T05:56:30;99122.38;;;-3.26;38.03
42727;BME280;28372;56.832;60.658;2022-12-10T05:59:00;99125.09;;;-3.21;38.14
42727;BME280;28372;56.832;60.658;2022-12-10T06:01:31;99134.06;;;-3.22;37.67
42727;BME280;28372;56.832;60.658;2022-12-10T06:04:01;99140.47;;;-3.18;37.90
42727;BME280;28372;56.832;60.658;2022-12-10T06:06:31;99131.16;;;-3.20;37.67
42727;BME280;28372;56.832;60.658;2022-12-10T06:09:00;99141.50;;;-3.19;37.40
42727;BME280;28372;56.832;60.658;2022-12-10T06:11:29;99132.22;;;-3.21;37.23
42727;BME280;28372;56.832;60.658;2022-12-10T06:13:57;99131.25;;;-3.15;37.87
42727;BME280;28372;56.832;60.658;2022-12-10T06:16:26;99129.69;;;-3.11;37.23
42727;BME280;28372;56.832;60.658;2022-12-10T06:18:55;99129.72;;;-3.06;37.25
42727;BME280;28372;56.832;60.658;2022-12-10T06:21:23;99126.63;;;-3.03;37.16
42727;BME280;28372;56.832;60.658;2022-12-10T06:23:51;99137.47;;;-2.99;36.88
42727;BME280;28372;56.832;60.658;2022-12-10T06:26:23;99133.59;;;-2.91;36.46
42727;BME280;28372;56.832;60.658;2022-12-10T06:28:52;99125.41;;;-2.90;36.76
42727;BME280;28372;56.832;60.658;2022-12-10T06:31:21;99133.34;;;-2.90;36.36
42727;BME280;28372;56.832;60.658;2022-12-10T06:33:50;99124.66;;;-2.85;36.68
42727;BME280;28372;56.832;60.658;2022-12-10T06:36:18;99118.91;;;-2.77;36.08
42727;BME280;28372;56.832;60.658;2022-12-10T06:38:46;99124.00;;;-2.70;35.48
42727;BME280;28372;56.832;60.658;2022-12-10T06:41:17;99120.81;;;-2.72;35.96
42727;BME280;28372;56.832;60.658;2022-12-10T06:43:46;99107.53;;;-2.78;35.73
42727;BME280;28372;56.832;60.658;2022-12-10T06:46:17;99117.94;;;-2.66;35.84
42727;BME280;28372;56.832;60.658;2022-12-10T06:48:46;99138.09;;;-2.65;35.58
42727;BME280;28372;56.832;60.658;2022-12-10T06:51:14;99137.53;;;-2.67;35.17
42727;BME280;28372;56.832;60.658;2022-12-10T06:53:43;99133.75;;;-2.76;36.07
42727;BME280;28372;56.832;60.658;2022-12-10T06:56:20;99141.63;;;-2.54;35.98
42727;BME280;28372;56.832;60.658;2022-12-10T06:58:47;99124.28;;;-2.67;35.12
42727;BME280;28372;56.832;60.658;2022-12-10T07:01:21;99122.78;;;-2.58;35.66
42727;BME280;28372;56.832;60.658;2022-12-10T07:03:51;99118.09;;;-2.50;35.02
42727;BME280;28372;56.832;60.658;2022-12-10T07:06:19;99104.38;;;-2.42;35.97
42727;BME280;28372;56.832;60.658;2022-12-10T07:08:48;99110.13;;;-2.50;34.92
42727;BME280;28372;56.832;60.658;2022-12-10T07:11:17;99108.28;;;-2.50;35.31
42727;BME280;28372;56.832;60.658;2022-12-10T07:13:45;99108.13;;;-2.70;35.34
42727;BME280;28372;56.832;60.658;2022-12-10T07:16:32;99109.22;;;-2.66;36.11
42727;BME280;28372;56.832;60.658;2022-12-10T07:19:01;99104.38;;;-2.74;35.98
42727;BME280;28372;56.832;60.658;2022-12-10T07:21:32;99110.78;;;-2.70;36.58
42727;BME280;28372;56.832;60.658;2022-12-10T07:24:07;99106.50;;;-2.71;36.22
42727;BME280;28372;56.832;60.658;2022-12-10T07:26:37;99116.56;;;-2.73;36.11
42727;BME280;28372;56.832;60.658;2022-12-10T07:29:06;99106.69;;;-2.83;35.98
42727;BME280;28372;56.832;60.658;2022-12-10T07:31:35;99086.94;;;-2.98;36.24
42727;BME280;28372;56.832;60.658;2022-12-10T07:34:03;99093.06;;;-2.92;36.09
42727;BME280;28372;56.832;60.658;2022-12-10T07:36:31;99095.38;;;-3.01;35.84
42727;BME280;28372;56.832;60.658;2022-12-10T07:38:58;99093.03;;;-3.24;36.10
42727;BME280;28372;56.832;60.658;2022-12-10T07:41:26;99105.56;;;-3.15;36.02
42727;BME280;28372;56.832;60.658;2022-12-10T07:43:54;99095.81;;;-3.09;36.75
42727;BME280;28372;56.832;60.658;2022-12-10T07:46:25;99104.13;;;-3.00;36.61
42727;BME280;28372;56.832;60.658;2022-12-10T07:48:54;99098.59;;;-2.99;36.59
42727;BME280;28372;56.832;60.658;2022-12-10T07:51:22;99097.78;;;-2.99;36.40
42727;BME280;28372;56.832;60.658;2022-12-10T07:53:53;99088.66;;;-3.14;36.55
42727;BME280;28372;56.832;60.658;2022-12-10T07:56:23;99102.78;;;-3.03;40.93
42727;BME280;28372;56.832;60.658;2022-12-10T07:58:52;99109.97;;;-2.98;38.59
42727;BME280;28372;56.832;60.658;2022-12-10T08:01:24;99101.00;;;-2.97;37.09
42727;BME280;28372;56.832;60.658;2022-12-10T08:03:53;99100.16;;;-3.03;36.82
42727;BME280;28372;56.832;60.658;2022-12-10T08:06:24;99079.84;;;-3.19;36.80
42727;BME280;28372;56.832;60.658;2022-12-10T08:08:52;99089.16;;;-3.17;36.49
42727;BME280;28372;56.832;60.658;2022-12-10T08:11:21;99093.63;;;-3.17;37.12
42727;BME280;28372;56.832;60.658;2022-12-10T08:13:50;99084.53;;;-3.27;36.67
42727;BME280;28372;56.832;60.658;2022-12-10T08:16:23;99096.22;;;-2.95;37.53
42727;BME280;28372;56.832;60.658;2022-12-10T08:18:54;99096.78;;;-3.20;37.01
42727;BME280;28372;56.832;60.658;2022-12-10T08:21:24;99108.88;;;-3.30;36.99
42727;BME280;28372;56.832;60.658;2022-12-10T08:23:53;99092.72;;;-3.28;37.26
42727;BME280;28372;56.832;60.658;2022-12-10T08:26:24;99090.72;;;-3.43;37.57
42727;BME280;28372;56.832;60.658;2022-12-10T08:28:54;99093.66;;;-3.39;37.71
42727;BME280;28372;56.832;60.658;2022-12-10T08:31:23;99098.38;;;-3.41;37.79
42727;BME280;28372;56.832;60.658;2022-12-10T08:33:52;99085.84;;;-3.51;37.55
42727;BME280;28372;56.832;60.658;2022-12-10T08:36:20;99089.25;;;-3.56;37.61
42727;BME280;28372;56.832;60.658;2022-12-10T08:38:48;99078.78;;;-3.46;38.02
42727;BME280;28372;56.832;60.658;2022-12-10T08:41:21;99084.72;;;-3.33;37.76
42727;BME280;28372;56.832;60.658;2022-12-10T08:43:51;99084.97;;;-3.35;37.32
42727;BME280;28372;56.832;60.658;2022-12-10T08:46:19;99079.19;;;-3.32;37.91
42727;BME280;28372;56.832;60.658;2022-12-10T08:48:47;99089.84;;;-3.27;38.10
42727;BME280;28372;56.832;60.658;2022-12-10T08:51:16;99086.13;;;-3.25;38.61
42727;BME280;28372;56.832;60.658;2022-12-10T08:53:45;99074.66;;;-3.36;38.53
42727;BME280;28372;56.832;60.658;2022-12-10T08:56:13;99073.41;;;-3.29;38.12
42727;BME280;28372;56.832;60.658;2022-12-10T08:58:41;99070.03;;;-3.24;38.47
42727;BME280;28372;56.832;60.658;2022-12-10T09:01:15;99077.75;;;-3.17;38.64
42727;BME280;28372;56.832;60.658;2022-12-10T09:03:43;99061.28;;;-3.24;38.13
42727;BME280;28372;56.832;60.658;2022-12-10T09:06:15;99065.72;;;-3.03;37.93
42727;BME280;28372;56.832;60.658;2022-12-10T09:08:43;99063.56;;;-3.06;37.53
42727;BME280;28372;56.832;60.658;2022-12-10T09:11:22;99072.16;;;-2.94;37.82
42727;BME280;28372;56.832;60.658;2022-12-10T09:13:50;99070.00;;;-2.97;37.65
42727;BME280;28372;56.832;60.658;2022-12-10T09:16:26;99069.00;;;-2.90;37.68
42727;BME280;28372;56.832;60.658;2022-12-10T09:18:54;99054.25;;;-2.81;37.41
42727;BME280;28372;56.832;60.658;2022-12-10T09:21:22;99065.75;;;-2.70;37.34
42727;BME280;28372;56.832;60.658;2022-12-10T09:23:50;99081.91;;;-2.72;37.25
42727;BME280;28372;56.832;60.658;2022-12-10T09:26:19;99080.03;;;-2.71;37.15
42727;BME280;28372;56.832;60.658;2022-12-10T09:28:47;99078.16;;;-2.71;37.14
42727;BME280;28372;56.832;60.658;2022-12-10T09:31:18;99067.63;;;-2.66;37.11
42727;BME280;28372;56.832;60.658;2022-12-10T09:33:48;99047.50;;;-2.67;37.25
42727;BME280;28372;56.832;60.658;2022-12-10T09:36:16;99058.91;;;-2.66;36.70
42727;BME280;28372;56.832;60.658;2022-12-10T09:38:45;99062.91;;;-2.64;36.54
42727;BME280;28372;56.832;60.658;2022-12-10T09:41:35;99068.78;;;-2.51;36.79
42727;BME280;28372;56.832;60.658;2022-12-10T09:46:58;99057.41;;;-2.52;36.67
42727;BME280;28372;56.832;60.658;2022-12-10T09:52:03;99044.63;;;-2.60;36.96
42727;BME280;28372;56.832;60.658;2022-12-10T09:54:42;99048.06;;;-2.65;36.86
42727;BME280;28372;56.832;60.658;2022-12-10T09:57:29;99055.56;;;-2.51;37.22
42727;BME280;28372;56.832;60.658;2022-12-10T10:02:44;99044.59;;;-2.98;37.18
42727;BME280;28372;56.832;60.658;2022-12-10T10:05:38;99045.78;;;-3.11;37.75
42727;BME280;28372;56.832;60.658;2022-12-10T10:11:00;99048.81;;;-3.51;38.66
42727;BME280;28372;56.832;60.658;2022-12-10T10:13:45;99045.25;;;-3.62;38.66
42727;BME280;28372;56.832;60.658;2022-12-10T10:21:49;99039.47;;;-4.03;40.07
42727;BME280;28372;56.832;60.658;2022-12-10T10:24:23;99023.59;;;-4.25;40.81
42727;BME280;28372;56.832;60.658;2022-12-10T10:26:57;99035.59;;;-4.18;40.74
42727;BME280;28372;56.832;60.658;2022-12-10T10:29:24;99036.97;;;-4.32;40.53
42727;BME280;28372;56.832;60.658;2022-12-10T10:32:17;99042.41;;;-4.22;40.55
42727;BME280;28372;56.832;60.658;2022-12-10T10:34:46;99036.75;;;-4.31;41.22
42727;BME280;28372;56.832;60.658;2022-12-10T10:37:27;99032.41;;;-4.37;41.10
42727;BME280;28372;56.832;60.658;2022-12-10T10:39:57;99030.81;;;-4.38;40.98
42727;BME280;28372;56.832;60.658;2022-12-10T10:45:33;99031.66;;;-4.15;41.28
42727;BME280;28372;56.832;60.658;2022-12-10T10:50:43;99042.25;;;-4.15;40.65
42727;BME280;28372;56.832;60.658;2022-12-10T10:53:32;99049.81;;;-4.02;41.07
42727;BME280;28372;56.832;60.658;2022-12-10T10:56:16;99037.69;;;-3.98;41.01
42727;BME280;28372;56.832;60.658;2022-12-10T10:58:50;99035.84;;;-3.75;40.51
42727;BME280;28372;56.832;60.658;2022-12-10T11:01:20;99039.19;;;-3.85;39.71
42727;BME280;28372;56.832;60.658;2022-12-10T11:03:57;99031.84;;;-3.78;40.11
42727;BME280;28372;56.832;60.658;2022-12-10T11:06:25;99029.81;;;-3.70;39.52
42727;BME280;28372;56.832;60.658;2022-12-10T11:08:57;99030.22;;;-3.62;39.75
42727;BME280;28372;56.832;60.658;2022-12-10T11:11:39;99027.41;;;-3.50;39.38
42727;BME280;28372;56.832;60.658;2022-12-10T11:16:42;99000.00;;;-3.43;38.32
42727;BME280;28372;56.832;60.658;2022-12-10T11:19:19;99012.03;;;-3.25;38.33
42727;BME280;28372;56.832;60.658;2022-12-10T11:21:48;99012.94;;;-3.15;37.45
42727;BME280;28372;56.832;60.658;2022-12-10T11:24:18;99012.44;;;-3.12;37.37
42727;BME280;28372;56.832;60.658;2022-12-10T11:27:09;99014.09;;;-3.05;38.13
42727;BME280;28372;56.832;60.658;2022-12-10T11:49:19;99008.34;;;-2.60;36.91
42727;BME280;28372;56.832;60.658;2022-12-10T11:52:02;99013.31;;;-2.68;36.50
42727;BME280;28372;56.832;60.658;2022-12-10T11:57:38;98988.41;;;-2.72;36.08
42727;BME280;28372;56.832;60.658;2022-12-10T12:11:17;98992.53;;;-2.49;35.82
42727;BME280;28372;56.832;60.658;2022-12-10T12:14:24;98994.09;;;-2.53;35.84
42727;BME280;28372;56.832;60.658;2022-12-10T12:16:49;98977.16;;;-2.52;35.52
42727;BME280;28372;56.832;60.658;2022-12-10T12:19:24;98970.09;;;-2.36;35.36
42727;BME280;28372;56.832;60.658;2022-12-10T12:21:52;98976.16;;;-2.36;35.41
42727;BME280;28372;56.832;60.658;2022-12-10T12:24:38;98972.78;;;-2.26;35.29
42727;BME280;28372;56.832;60.658;2022-12-10T12:29:42;98975.06;;;-2.45;35.67
42727;BME280;28372;56.832;60.658;2022-12-10T12:32:19;98962.09;;;-2.42;36.10
42727;BME280;28372;56.832;60.658;2022-12-10T12:37:44;98963.53;;;-2.24;35.38
42727;BME280;28372;56.832;60.658;2022-12-10T12:40:30;98967.50;;;-2.21;35.61
42727;BME280;28372;56.832;60.658;2022-12-10T12:43:09;98957.16;;;-2.22;35.10
42727;BME280;28372;56.832;60.658;2022-12-10T12:45:41;98955.81;;;-2.25;35.29
42727;BME280;28372;56.832;60.658;2022-12-10T12:50:47;98951.38;;;-2.09;35.29
42727;BME280;28372;56.832;60.658;2022-12-10T12:53:19;98941.59;;;-2.09;34.54
42727;BME280;28372;56.832;60.658;2022-12-10T13:00:52;98944.25;;;-2.03;34.46
42727;BME280;28372;56.832;60.658;2022-12-10T13:03:29;98946.59;;;-2.12;34.38
42727;BME280;28372;56.832;60.658;2022-12-10T13:06:25;98929.38;;;-2.10;34.47
42727;BME280;28372;56.832;60.658;2022-12-10T13:11:45;98939.16;;;-2.15;34.06
42727;BME280;28372;56.832;60.658;2022-12-10T13:17:35;98922.50;;;-2.05;34.56
42727;BME280;28372;56.832;60.658;2022-12-10T13:23:05;98934.19;;;-2.01;34.43
42727;BME280;28372;56.832;60.658;2022-12-10T13:28:40;98935.78;;;-2.00;34.65
42727;BME280;28372;56.832;60.658;2022-12-10T13:41:31;98927.78;;;-2.16;34.54
42727;BME280;28372;56.832;60.658;2022-12-10T13:44:36;98920.91;;;-2.12;34.74
42727;BME280;28372;56.832;60.658;2022-12-10T13:49:58;98894.38;;;-2.17;34.88
42727;BME280;28372;56.832;60.658;2022-12-10T13:55:38;98898.09;;;-2.23;34.14
42727;BME280;28372;56.832;60.658;2022-12-10T14:01:16;98912.16;;;-2.12;34.82
42727;BME280;28372;56.832;60.658;2022-12-10T14:06:45;98900.66;;;-2.33;34.00
42727;BME280;28372;56.832;60.658;2022-12-10T14:11:48;98888.31;;;-2.07;36.32
42727;BME280;28372;56.832;60.658;2022-12-10T14:14:46;98898.09;;;-2.13;35.44
42727;BME280;28372;56.832;60.658;2022-12-10T14:17:19;98895.97;;;-2.11;35.34
42727;BME280;28372;56.832;60.658;2022-12-10T14:19:50;98887.47;;;-2.23;34.45
42727;BME280;28372;56.832;60.658;2022-12-10T14:24:52;98882.94;;;-2.28;34.62
42727;BME280;28372;56.832;60.658;2022-12-10T14:27:25;98885.88;;;-2.19;34.01
42727;BME280;28372;56.832;60.658;2022-12-10T14:30:18;98892.28;;;-2.10;35.76
42727;BME280;28372;56.832;60.658;2022-12-10T14:32:47;98875.47;;;-2.36;34.86
42727;BME280;28372;56.832;60.658;2022-12-10T14:35:22;98873.38;;;-2.29;34.17
42727;BME280;28372;56.832;60.658;2022-12-10T14:37:58;98866.28;;;-2.23;34.61
42727;BME280;28372;56.832;60.658;2022-12-10T14:40:35;98871.34;;;-2.11;34.61
42727;BME280;28372;56.832;60.658;2022-12-10T14:43:18;98864.97;;;-2.15;35.25
42727;BME280;28372;56.832;60.658;2022-12-10T14:45:58;98868.72;;;-2.06;35.40
42727;BME280;28372;56.832;60.658;2022-12-10T14:48:27;98850.66;;;-2.14;35.13
42727;BME280;28372;56.832;60.658;2022-12-10T14:51:03;98858.88;;;-2.16;34.77
42727;BME280;28372;56.832;60.658;2022-12-10T14:53:31;98852.25;;;-2.18;34.81
42727;BME280;28372;56.832;60.658;2022-12-10T14:56:02;98854.06;;;-2.29;34.74
42727;BME280;28372;56.832;60.658;2022-12-10T14:58:42;98858.31;;;-2.18;35.37
42727;BME280;28372;56.832;60.658;2022-12-10T15:01:16;98861.50;;;-2.21;35.28
42727;BME280;28372;56.832;60.658;2022-12-10T15:03:45;98852.16;;;-2.39;34.42
42727;BME280;28372;56.832;60.658;2022-12-10T15:06:17;98862.25;;;-2.31;34.90
42727;BME280;28372;56.832;60.658;2022-12-10T15:08:46;98868.78;;;-2.54;34.80
42727;BME280;28372;56.832;60.658;2022-12-10T15:11:17;98855.88;;;-2.45;34.71
42727;BME280;28372;56.832;60.658;2022-12-10T15:13:50;98859.03;;;-2.43;35.54
42727;BME280;28372;56.832;60.658;2022-12-10T15:22:20;98835.66;;;-2.62;35.67
42727;BME280;28372;56.832;60.658;2022-12-10T15:24:48;98843.09;;;-2.64;35.38
42727;BME280;28372;56.832;60.658;2022-12-10T15:27:22;98845.53;;;-2.47;34.73
42727;BME280;28372;56.832;60.658;2022-12-10T15:29:50;98842.59;;;-2.50;34.67
42727;BME280;28372;56.832;60.658;2022-12-10T15:32:26;98838.88;;;-2.44;35.28
42727;BME280;28372;56.832;60.658;2022-12-10T15:34:58;98844.16;;;-2.54;35.14